Time;durP1;ratioP1;P1;durP2;ratioP2;P2;SDS_P1;SDS_P2;PMS_P1;PMS_P2;Temp;Humidity;BMP_temperature;BMP_pressure;BME280_temperature;BME280_humidity;BME280_pressure;Samples;Min_cycle;Max_cycle;Signal;HPM_P1;HPM_P2
2022/04/23 00:01:00;;;;;;;18.33;16.50;;;;;;;9.90;34.56;99466.50;10447274;28;20619;-88
2022/04/23 00:06:03;;;;;;;16.17;14.53;;;;;;;9.44;35.31;99460.56;10464597;28;20200;-88
2022/04/23 00:11:06;;;;;;;16.07;14.33;;;;;;;9.41;35.51;99461.34;10464800;28;20188;-89
2022/04/23 00:16:10;;;;;;;20.20;14.07;;;;;;;9.30;35.75;99453.97;10464308;28;20211;-87
2022/04/23 00:21:13;;;;;;;15.73;14.10;;;;;;;8.69;37.17;99464.81;10448477;28;20224;-87
2022/04/23 00:26:15;;;;;;;16.57;14.63;;;;;;;8.65;37.54;99474.50;10447448;28;20192;-87
2022/04/23 00:31:17;;;;;;;17.83;16.03;;;;;;;9.45;35.74;99472.75;10447510;28;20204;-88
2022/04/23 00:36:23;;;;;;;18.33;16.10;;;;;;;9.29;36.21;99475.06;10463115;28;20246;-87
2022/04/23 00:41:45;;;;;;;18.70;16.70;;;;;;;9.04;36.84;99472.84;10440224;28;20314;-88
2022/04/23 00:46:48;;;;;;;21.77;18.70;;;;;;;8.75;37.71;99473.81;10428386;28;20228;-88
2022/04/23 00:51:52;;;;;;;21.67;19.20;;;;;;;8.92;37.36;99467.47;10441218;28;20219;-88
2022/04/23 00:56:54;;;;;;;24.10;21.57;;;;;;;8.58;38.05;99471.63;10459769;28;20278;-87
2022/04/23 01:01:56;;;;;;;24.57;21.97;;;;;;;8.77;37.76;99463.66;10463069;28;20501;-88
2022/04/23 01:06:59;;;;;;;26.93;23.97;;;;;;;7.92;39.89;99468.41;10445775;28;20501;-87
2022/04/23 01:12:03;;;;;;;25.53;21.80;;;;;;;8.42;38.66;99461.28;10445066;28;20254;-88
2022/04/23 01:17:05;;;;;;;24.80;22.20;;;;;;;8.95;37.84;99461.00;10461702;28;20277;-87
2022/04/23 01:22:08;;;;;;;26.17;22.90;;;;;;;9.66;36.21;99461.53;10460993;28;20219;-84
2022/04/23 01:27:10;;;;;;;27.57;23.77;;;;;;;9.35;36.52;99467.81;10461150;28;20262;-89
2022/04/23 01:32:12;;;;;;;25.83;22.67;;;;;;;9.11;36.88;99458.69;10444434;28;20195;-88
2022/04/23 01:37:15;;;;;;;28.93;23.07;;;;;;;8.28;38.09;99463.16;10460723;28;20224;-85
2022/04/23 01:42:18;;;;;;;31.67;23.97;;;;;;;7.84;39.22;99463.03;10444251;28;20287;-87
2022/04/23 01:47:21;;;;;;;26.73;23.70;;;;;;;7.95;39.39;99469.66;10460337;28;20187;-87
2022/04/23 01:52:23;;;;;;;27.00;22.10;;;;;;;8.48;37.74;99459.75;10460317;28;20188;-87
2022/04/23 01:57:25;;;;;;;25.60;22.73;;;;;;;8.42;38.20;99454.78;10443344;28;20184;-87
2022/04/23 02:02:27;;;;;;;27.10;23.03;;;;;;;8.24;37.91;99448.91;10459359;28;20235;-87
2022/04/23 02:07:29;;;;;;;26.80;23.33;;;;;;;8.50;37.63;99451.66;10458568;28;20196;-87
2022/04/23 02:12:32;;;;;;;27.67;23.37;;;;;;;8.42;38.23;99454.78;10442707;28;20586;-86
2022/04/23 02:17:40;;;;;;;24.57;21.27;;;;;;;8.36;38.04;99451.50;10459043;28;20220;-88
2022/04/23 02:22:42;;;;;;;26.33;22.70;;;;;;;9.47;36.18;99450.44;10459403;28;20242;-85
2022/04/23 02:27:46;;;;;;;24.03;21.00;;;;;;;8.78;38.24;99444.59;10442507;28;20485;-83
2022/04/23 02:32:49;;;;;;;24.77;21.10;;;;;;;9.45;36.15;99450.00;10458499;28;20249;-87
2022/04/23 02:37:56;;;;;;;25.80;22.03;;;;;;;9.05;37.47;99454.56;10426552;28;20207;-83
2022/04/23 02:43:00;;;;;;;23.67;20.97;;;;;;;8.23;38.78;99447.31;10457993;28;20196;-82
2022/04/23 02:48:02;;;;;;;25.30;22.23;;;;;;;9.02;37.51;99449.66;10457875;28;20230;-82
2022/04/23 02:53:06;;;;;;;27.63;22.53;;;;;;;9.46;36.20;99445.94;10441281;28;20222;-83
2022/04/23 02:58:09;;;;;;;24.40;21.77;;;;;;;9.39;36.78;99451.59;10459917;28;20235;-83
2022/04/23 03:03:12;;;;;;;23.43;20.93;;;;;;;8.66;37.97;99453.44;10440192;28;20199;-82
2022/04/23 03:08:15;;;;;;;24.77;21.27;;;;;;;9.03;37.48;99450.47;10457406;28;20192;-82
2022/04/23 03:13:17;;;;;;;25.63;22.83;;;;;;;9.25;36.85;99449.47;10440603;28;20208;-83
2022/04/23 03:18:19;;;;;;;25.20;21.60;;;;;;;9.19;36.73;99451.84;10458910;28;20215;-84
2022/04/23 03:23:22;;;;;;;24.47;21.43;;;;;;;8.85;38.17;99450.38;10465110;28;20536;-84
2022/04/23 03:28:24;;;;;;;24.43;21.80;;;;;;;9.21;37.29;99457.94;10465122;28;20192;-82
2022/04/23 03:33:27;;;;;;;26.90;22.23;;;;;;;9.82;36.20;99446.94;10464893;28;20281;-83
2022/04/23 03:38:29;;;;;;;24.50;21.60;;;;;;;9.58;36.24;99452.13;10464936;28;20212;-83
2022/04/23 03:43:32;;;;;;;26.60;22.87;;;;;;;9.69;36.39;99449.31;10448172;28;20596;-85
2022/04/23 03:48:34;;;;;;;24.70;21.40;;;;;;;9.73;36.28;99444.47;10465851;28;20184;-85
2022/04/23 03:53:37;;;;;;;24.73;21.27;;;;;;;8.72;37.93;99446.19;10464286;28;20196;-83
2022/04/23 03:58:39;;;;;;;25.70;22.10;;;;;;;9.37;36.50;99449.16;10431060;28;20270;-83
2022/04/23 04:03:41;;;;;;;27.47;22.90;;;;;;;9.80;35.88;99444.50;10447227;28;20597;-83
2022/04/23 04:08:44;;;;;;;24.40;21.83;;;;;;;9.33;36.35;99447.50;10463622;28;20240;-82
2022/04/23 04:13:47;;;;;;;27.30;23.57;;;;;;;9.31;36.76;99433.66;10446770;28;20204;-82
2022/04/23 04:18:49;;;;;;;25.10;22.50;;;;;;;9.43;36.20;99436.19;10463275;28;20215;-84
2022/04/23 04:23:51;;;;;;;26.53;22.67;;;;;;;9.49;36.21;99439.47;10464001;28;20188;-85
2022/04/23 04:28:55;;;;;;;24.50;21.83;;;;;;;9.23;36.47;99432.00;10464311;28;20192;-86
2022/04/23 04:33:57;;;;;;;27.10;24.03;;;;;;;8.30;37.96;99430.34;10442983;28;20258;-83
2022/04/23 04:38:59;;;;;;;26.53;23.77;;;;;;;9.10;36.47;99431.47;10464705;28;20212;-86
2022/04/23 04:44:02;;;;;;;27.70;23.07;;;;;;;8.61;37.58;99429.06;10451074;28;20239;-86
2022/04/23 04:49:05;;;;;;;25.83;22.97;;;;;;;9.03;36.18;99433.44;10462486;28;20192;-83
2022/04/23 04:54:07;;;;;;;27.30;23.77;;;;;;;8.94;36.54;99432.97;10462095;28;20254;-87
2022/04/23 04:59:09;;;;;;;27.17;23.97;;;;;;;8.80;36.45;99436.50;10445420;28;20208;-82
2022/04/23 05:04:12;;;;;;;27.57;24.77;;;;;;;8.68;37.13;99440.47;10443092;28;20192;-85
2022/04/23 05:09:14;;;;;;;26.77;22.77;;;;;;;9.26;35.79;99453.16;10434447;28;20208;-82
2022/04/23 05:14:18;;;;;;;28.03;24.90;;;;;;;9.15;36.45;99456.69;10445699;28;20271;-82
2022/04/23 05:19:20;;;;;;;26.60;23.73;;;;;;;9.50;35.47;99456.16;10439350;28;20619;-82
2022/04/23 05:24:24;;;;;;;28.03;24.97;;;;;;;9.25;36.28;99457.19;10430945;28;20600;-84
2022/04/23 05:29:28;;;;;;;28.40;24.93;;;;;;;9.84;35.14;99445.34;10426987;28;20254;-84
2022/04/23 05:34:31;;;;;;;27.07;24.23;;;;;;;8.85;36.86;99456.03;10437426;28;20232;-84
2022/04/23 05:39:33;;;;;;;27.67;24.77;;;;;;;9.67;35.22;99440.38;10444206;28;20216;-82
2022/04/23 05:44:36;;;;;;;27.33;24.27;;;;;;;9.60;35.71;99454.56;10442232;28;20275;-85
2022/04/23 05:49:38;;;;;;;28.30;25.30;;;;;;;9.43;35.92;99458.13;10457347;28;20848;-87
2022/04/23 05:54:53;;;;;;;30.00;26.80;;;;;;;9.76;35.41;99449.38;10455732;28;20208;-84
2022/04/23 05:59:56;;;;;;;31.80;27.37;;;;;;;8.54;37.72;99450.88;10441083;28;20216;-84
2022/04/23 06:04:58;;;;;;;29.17;24.77;;;;;;;9.99;34.86;99453.97;10444343;28;20204;-85
2022/04/23 06:10:01;;;;;;;29.97;25.23;;;;;;;9.66;34.81;99455.84;10449416;28;20214;-84
2022/04/23 06:15:04;;;;;;;30.37;26.47;;;;;;;10.19;34.27;99456.06;10456729;28;20289;-89
2022/04/23 06:20:06;;;;;;;31.30;27.17;;;;;;;10.00;34.77;99452.75;10442367;28;20242;-82
2022/04/23 06:25:09;;;;;;;28.70;25.60;;;;;;;9.03;35.99;99451.31;10440969;28;20266;-83
2022/04/23 06:30:11;;;;;;;30.27;27.13;;;;;;;10.28;33.87;99452.84;10456706;28;20592;-82
2022/04/23 06:35:14;;;;;;;29.80;26.57;;;;;;;9.77;34.68;99455.88;10441812;28;20253;-83
2022/04/23 06:40:16;;;;;;;31.77;28.37;;;;;;;10.17;34.27;99449.16;10425374;28;20702;-82
2022/04/23 06:45:19;;;;;;;30.90;27.43;;;;;;;9.95;34.58;99458.81;10424115;28;20196;-84
2022/04/23 06:50:21;;;;;;;32.33;27.20;;;;;;;10.40;33.81;99441.06;10422077;28;20203;-83
2022/04/23 06:55:24;;;;;;;30.60;27.33;;;;;;;9.65;34.66;99442.00;10434669;28;20200;-84
2022/04/23 07:00:26;;;;;;;30.97;27.67;;;;;;;9.11;36.06;99444.47;10440224;28;20217;-82
2022/04/23 07:05:36;;;;;;;29.27;26.10;;;;;;;10.75;32.96;99439.50;10428509;28;20333;-85
2022/04/23 07:10:39;;;;;;;32.77;28.23;;;;;;;10.61;33.42;99449.69;10443693;28;20203;-83
2022/04/23 07:15:41;;;;;;;30.87;27.53;;;;;;;10.94;32.53;99447.69;10418612;28;20200;-83
2022/04/23 07:20:43;;;;;;;34.30;28.07;;;;;;;10.76;33.86;99449.69;10438115;28;20220;-83
2022/04/23 07:25:45;;;;;;;30.90;27.13;;;;;;;11.04;32.52;99441.16;10440678;28;20208;-84
2022/04/23 07:30:48;;;;;;;32.97;28.10;;;;;;;10.59;33.54;99449.22;10436680;28;20502;-83
2022/04/23 07:41:12;;;;;;;34.40;27.27;;;;;;;11.20;32.97;99433.00;10440931;28;20223;-83
2022/04/23 07:46:14;;;;;;;31.43;27.03;;;;;;;10.83;32.84;99444.00;10439753;28;20196;-83
2022/04/23 07:51:20;;;;;;;31.93;28.53;;;;;;;11.00;32.56;99440.31;10434665;28;20591;-86
2022/04/23 07:56:22;;;;;;;34.43;29.20;;;;;;;11.07;32.54;99437.47;10411079;28;20228;-85
2022/04/23 08:01:24;;;;;;;33.47;27.70;;;;;;;11.45;32.50;99447.22;10450534;28;20646;-82
2022/04/23 08:06:27;;;;;;;30.07;26.70;;;;;;;11.06;32.58;99450.13;10437995;28;20271;-82
2022/04/23 08:11:29;;;;;;;33.93;28.20;;;;;;;11.43;32.05;99443.16;10417242;28;20709;-84
2022/04/23 08:16:31;;;;;;;33.85;28.98;;;;;;;11.01;33.70;99439.09;10398650;28;20255;-82
2022/04/23 08:21:33;;;;;;;30.67;27.37;;;;;;;12.37;30.03;99417.50;10378864;28;20628;-84
2022/04/23 08:26:36;;;;;;;32.00;27.65;;;;;;;11.93;31.38;99429.56;10413291;28;20293;-84
2022/04/23 08:31:38;;;;;;;32.70;27.52;;;;;;;12.68;30.56;99429.94;10413812;28;20231;-83
2022/04/23 08:36:40;;;;;;;32.15;27.60;;;;;;;13.00;29.87;99429.69;10399768;28;20512;-82
2022/04/23 08:41:44;;;;;;;32.85;27.58;;;;;;;12.47;31.04;99428.03;10431151;28;20247;-84
2022/04/23 08:46:48;;;;;;;35.22;28.92;;;;;;;12.83;29.64;99424.94;10421676;28;20238;-85
2022/04/23 08:51:52;;;;;;;34.28;26.85;;;;;;;12.06;31.85;99430.72;10401619;28;20264;-86
2022/04/23 08:56:54;;;;;;;32.25;26.98;;;;;;;13.84;28.97;99423.53;10430094;28;20239;-83
2022/04/23 09:01:57;;;;;;;30.65;26.77;;;;;;;12.53;30.93;99422.69;10427623;28;20317;-85
2022/04/23 09:06:59;;;;;;;33.80;27.13;;;;;;;12.68;29.81;99416.47;10415275;28;20235;-83
2022/04/23 09:12:01;;;;;;;27.53;23.30;;;;;;;12.91;29.35;99421.63;10409362;28;20292;-88
2022/04/23 09:27:50;;;;;;;30.27;25.05;;;;;;;13.04;28.96;99416.19;10438217;28;20204;-84
2022/04/23 09:32:57;;;;;;;30.17;24.58;;;;;;;13.17;30.07;99407.91;10437361;28;20281;-84
2022/04/23 09:38:18;;;;;;;29.95;24.65;;;;;;;13.26;29.65;99414.78;10435434;28;20281;-86
2022/04/23 09:43:28;;;;;;;28.27;25.17;;;;;;;13.50;28.58;99407.16;10435201;28;20617;-89
2022/04/23 09:48:31;;;;;;;28.17;24.23;;;;;;;11.91;29.95;99407.09;10411387;28;20282;-84
2022/04/23 09:53:33;;;;;;;25.75;22.98;;;;;;;12.94;28.97;99406.44;10431805;28;20226;-85
2022/04/23 09:58:36;;;;;;;26.70;23.58;;;;;;;14.24;27.66;99402.53;10440669;28;20541;-90
2022/04/23 10:03:39;;;;;;;24.33;21.40;;;;;;;13.91;27.23;99412.81;10429605;28;20631;-87
2022/04/23 10:08:45;;;;;;;25.90;22.55;;;;;;;15.32;26.07;99394.66;10418310;28;20201;-88
2022/04/23 10:13:53;;;;;;;22.15;19.77;;;;;;;14.02;26.87;99401.22;10413019;28;20212;-84
2022/04/23 10:18:56;;;;;;;25.00;20.75;;;;;;;14.09;27.88;99396.19;10423473;28;20341;-84
2022/04/23 10:24:21;;;;;;;21.50;18.73;;;;;;;13.83;27.24;99405.53;10447438;28;20633;-87
2022/04/23 10:29:27;;;;;;;23.55;18.80;;;;;;;13.92;26.70;99397.25;10409793;28;20220;-84
2022/04/23 10:34:31;;;;;;;23.83;20.83;;;;;;;13.78;26.74;99397.41;10412091;28;20219;-84
2022/04/23 10:39:34;;;;;;;25.85;22.73;;;;;;;13.60;28.61;99400.47;10438260;28;20227;-83
2022/04/23 10:44:36;;;;;;;23.92;19.83;;;;;;;13.34;27.82;99407.72;10438859;28;20259;-85
2022/04/23 10:49:38;;;;;;;24.67;21.00;;;;;;;14.19;27.35;99393.63;10417114;28;20243;-88
2022/04/23 10:54:42;;;;;;;26.50;21.92;;;;;;;15.22;25.60;99387.06;10412975;28;20235;-86
2022/04/23 10:59:45;;;;;;;24.85;20.98;;;;;;;14.79;25.89;99393.50;10435015;28;20551;-86
2022/04/23 11:16:13;;;;;;;17.55;14.30;;;;;;;15.23;24.03;99379.25;10424811;28;20217;-86
2022/04/23 11:21:23;;;;;;;17.67;14.95;;;;;;;14.64;24.49;99383.53;10430939;28;20294;-87
2022/04/23 11:26:45;;;;;;;18.17;15.60;;;;;;;14.70;24.63;99378.94;10437934;28;20588;-88
2022/04/23 11:31:54;;;;;;;16.73;14.88;;;;;;;16.05;23.33;99366.91;10421298;28;20306;-86
2022/04/23 11:36:56;;;;;;;16.42;14.02;;;;;;;16.05;24.19;99361.97;10390980;28;20264;-88
2022/04/23 11:41:59;;;;;;;18.40;15.18;;;;;;;14.74;23.76;99379.66;10420963;28;20262;-87
2022/04/23 11:47:01;;;;;;;20.25;14.82;;;;;;;16.16;22.94;99362.56;10418200;28;20216;-87
2022/04/23 11:52:05;;;;;;;20.17;15.00;;;;;;;15.01;24.17;99370.22;10412859;28;20523;-88
2022/04/23 11:57:10;;;;;;;17.42;14.45;;;;;;;15.19;23.18;99359.22;10409007;28;20239;-87
2022/04/23 12:02:19;;;;;;;18.08;14.82;;;;;;;15.44;23.23;99353.81;10437459;28;20259;-86
2022/04/23 12:07:22;;;;;;;15.02;12.95;;;;;;;15.69;22.28;99352.50;10438544;28;20223;-87
2022/04/23 12:12:28;;;;;;;16.58;13.15;;;;;;;15.22;22.84;99352.59;10417626;28;20200;-86
2022/04/23 12:17:32;;;;;;;18.42;13.35;;;;;;;15.41;22.51;99354.69;10433559;28;20242;-86
2022/04/23 12:22:34;;;;;;;14.95;13.35;;;;;;;15.86;22.92;99351.31;10435298;28;20251;-87
2022/04/23 12:28:02;;;;;;;15.02;12.50;;;;;;;16.15;22.65;99349.47;10437171;28;21022;-83
2022/04/23 12:44:17;;;;;;;20.85;16.65;;;;;;;15.10;23.92;99341.78;10424252;28;20254;-82
2022/04/23 12:49:20;;;;;;;19.80;16.08;;;;;;;14.39;24.96;99343.78;10451998;28;20205;-84
2022/04/23 12:54:23;;;;;;;19.85;16.05;;;;;;;14.81;24.74;99330.78;10435000;28;20545;-85
2022/04/23 12:59:30;;;;;;;15.90;14.20;;;;;;;15.59;23.15;99316.22;10439995;28;20200;-82
2022/04/23 13:04:32;;;;;;;18.02;15.20;;;;;;;15.59;22.95;99319.88;10432755;28;20670;-86
2022/04/23 13:09:34;;;;;;;17.08;14.93;;;;;;;14.69;24.21;99322.81;10446482;28;20541;-84
2022/04/23 13:14:37;;;;;;;16.50;14.48;;;;;;;14.53;24.21;99322.66;10442886;28;20269;-87
2022/04/23 13:19:39;;;;;;;17.97;14.83;;;;;;;14.08;24.86;99319.28;10437251;28;20244;-86
2022/04/23 13:24:42;;;;;;;14.80;13.30;;;;;;;15.12;24.05;99313.44;10432627;28;20232;-84
2022/04/23 13:29:44;;;;;;;17.80;12.60;;;;;;;15.19;24.01;99310.44;10453600;28;20203;-84
2022/04/23 13:34:47;;;;;;;21.08;13.10;;;;;;;15.43;23.06;99306.25;10442908;28;20612;-83
2022/04/23 13:39:49;;;;;;;33.40;14.18;;;;;;;15.50;23.16;99293.81;10439105;28;20304;-81
2022/04/23 13:44:52;;;;;;;24.48;13.48;;;;;;;14.58;24.07;99304.97;10453210;28;20228;-83
2022/04/23 13:49:54;;;;;;;17.02;13.52;;;;;;;14.48;24.75;99308.81;10435242;28;20649;-80
2022/04/23 13:54:59;;;;;;;17.80;13.10;;;;;;;14.89;24.55;99297.03;10439377;28;20273;-83
2022/04/23 14:00:02;;;;;;;15.50;13.43;;;;;;;14.84;24.73;99294.69;10448046;28;20200;-92
2022/04/23 14:10:35;;;;;;;35.88;14.00;;;;;;;14.46;24.40;99291.28;10443639;28;20257;-80
2022/04/23 14:15:38;;;;;;;14.88;12.20;;;;;;;14.08;24.62;99294.28;10454468;28;20192;-89
2022/04/23 14:20:40;;;;;;;13.40;11.80;;;;;;;14.41;24.05;99281.09;10431294;28;20301;-83
2022/04/23 14:25:42;;;;;;;14.32;12.27;;;;;;;14.28;24.41;99282.13;10452447;28;20219;-84
2022/04/23 14:30:44;;;;;;;15.20;12.50;;;;;;;14.54;23.79;99272.69;10482033;28;20543;-88
2022/04/23 14:35:47;;;;;;;13.30;10.95;;;;;;;15.14;22.96;99265.00;10482726;28;20227;-81
2022/04/23 14:40:49;;;;;;;14.52;11.30;;;;;;;15.57;22.92;99261.28;10480467;28;20211;-87
2022/04/23 14:45:51;;;;;;;11.70;10.48;;;;;;;15.39;23.64;99248.06;10487120;28;20530;-83
2022/04/23 14:56:15;;;;;;;12.52;10.60;;;;;;;14.78;22.83;99247.66;10486878;28;20198;-85
2022/04/23 15:01:17;;;;;;;11.77;9.55;;;;;;;15.63;22.68;99250.91;10474727;28;20284;-86
2022/04/23 15:06:21;;;;;;;12.48;11.18;;;;;;;14.76;23.22;99245.22;10479550;28;20292;-88
2022/04/23 15:11:24;;;;;;;12.40;9.82;;;;;;;14.80;22.89;99248.84;10474632;28;20600;-81
2022/04/23 15:16:27;;;;;;;11.50;9.95;;;;;;;14.67;24.06;99247.06;10472276;28;21158;-80
2022/04/23 15:21:29;;;;;;;10.38;9.13;;;;;;;14.91;23.08;99236.34;10473439;28;20215;-82
2022/04/23 15:26:31;;;;;;;12.52;9.30;;;;;;;15.09;22.64;99225.38;10471899;28;20231;-88
2022/04/23 15:31:33;;;;;;;9.82;8.85;;;;;;;13.41;24.31;99252.28;10458367;28;20589;-84
2022/04/23 15:36:36;;;;;;;8.85;7.90;;;;;;;15.91;22.33;99235.84;10464936;28;20292;-87
2022/04/23 15:41:39;;;;;;;8.88;8.05;;;;;;;14.78;23.07;99241.94;10469529;28;20246;-85
2022/04/23 15:46:41;;;;;;;7.85;7.05;;;;;;;15.25;22.04;99236.88;10484686;28;20249;-84
2022/04/23 15:51:44;;;;;;;7.05;6.20;;;;;;;15.52;21.88;99233.84;10474849;28;20199;-86
2022/04/23 15:56:46;;;;;;;8.88;5.88;;;;;;;15.72;20.99;99236.72;10481279;28;20241;-81
2022/04/23 16:01:49;;;;;;;6.90;5.57;;;;;;;14.52;21.96;99231.34;10486123;28;20255;-80
2022/04/23 16:06:51;;;;;;;6.85;5.90;;;;;;;13.53;21.97;99225.94;10456928;28;20230;-85
2022/04/23 16:11:53;;;;;;;5.45;4.95;;;;;;;14.18;22.29;99232.34;10444138;28;20227;-80
2022/04/23 16:16:55;;;;;;;5.65;4.80;;;;;;;14.72;20.87;99215.81;10423064;28;20228;-85
2022/04/23 16:21:57;;;;;;;4.97;4.40;;;;;;;14.99;20.69;99230.03;10416884;28;20568;-87
2022/04/23 16:27:00;;;;;;;4.60;4.22;;;;;;;14.98;19.64;99216.97;10448697;28;20204;-79
2022/04/23 16:32:02;;;;;;;4.38;3.97;;;;;;;13.96;20.33;99208.94;10455476;28;20196;-90
2022/04/23 16:48:03;;;;;;;3.55;3.25;;;;;;;14.63;20.03;99206.16;10431838;28;20516;-86
2022/04/23 16:53:09;;;;;;;5.90;3.10;;;;;;;14.65;18.75;99204.47;10443827;28;20200;-90
2022/04/23 16:58:11;;;;;;;4.90;3.28;;;;;;;14.21;19.71;99207.75;10415378;28;20594;-80
2022/04/23 17:03:13;;;;;;;5.13;3.08;;;;;;;14.95;17.93;99199.81;10415733;28;20268;-86
2022/04/23 17:08:16;;;;;;;5.80;2.77;;;;;;;14.48;18.59;99197.00;10411940;28;20585;-79
2022/04/23 17:13:19;;;;;;;2.85;2.50;;;;;;;14.22;18.17;99195.00;10438667;28;20310;-89
2022/04/23 17:18:21;;;;;;;3.25;2.70;;;;;;;15.18;17.56;99185.41;10466294;28;20251;-90
2022/04/23 17:23:23;;;;;;;2.70;2.50;;;;;;;14.65;18.92;99195.06;10463273;28;20224;-92
2022/04/23 17:28:26;;;;;;;2.67;2.38;;;;;;;14.19;18.44;99199.56;10436682;28;20203;-92
2022/04/23 17:33:29;;;;;;;2.58;2.13;;;;;;;13.45;18.71;99202.31;10439953;28;20231;-79
2022/04/23 17:43:54;;;;;;;4.37;2.40;;;;;;;14.11;17.87;99187.41;10423151;28;20215;-87
2022/04/23 17:48:57;;;;;;;1.85;1.70;;;;;;;14.60;16.24;99184.91;10442457;28;20200;-91
2022/04/23 17:53:59;;;;;;;4.38;2.50;;;;;;;13.40;18.27;99185.66;10461934;28;20210;-84
2022/04/23 17:59:03;;;;;;;2.63;2.00;;;;;;;13.96;17.80;99185.22;10433914;28;20204;-83
2022/04/23 18:09:26;;;;;;;2.20;2.00;;;;;;;14.16;17.15;99188.97;10477834;28;20235;-87
2022/04/23 18:14:30;;;;;;;2.83;2.63;;;;;;;13.71;17.89;99185.59;10448832;28;20231;-87
2022/04/23 18:19:34;;;;;;;2.88;2.63;;;;;;;13.60;18.30;99184.94;10435180;28;20223;-89
2022/04/23 18:24:36;;;;;;;2.60;2.40;;;;;;;13.41;18.61;99195.88;10462477;28;20251;-86
2022/04/23 18:29:41;;;;;;;4.78;2.42;;;;;;;13.24;18.99;99196.91;10481548;28;20315;-88
2022/04/23 18:34:43;;;;;;;3.40;2.20;;;;;;;13.76;18.18;99193.69;10462903;28;20276;-86
2022/04/23 18:39:49;;;;;;;3.60;2.60;;;;;;;13.32;18.38;99192.69;10453211;28;20269;-89
2022/04/23 18:44:51;;;;;;;4.23;2.80;;;;;;;12.64;18.66;99203.34;10495113;28;20223;-85
2022/04/23 18:49:53;;;;;;;7.03;3.60;;;;;;;13.32;17.92;99201.28;10463396;28;20257;-85
2022/04/23 18:54:57;;;;;;;3.00;2.70;;;;;;;13.62;18.26;99206.19;10459878;28;20494;-83
2022/04/23 18:59:59;;;;;;;3.33;2.80;;;;;;;12.70;18.81;99205.31;10447532;28;20794;-88
2022/04/23 19:05:03;;;;;;;2.70;2.50;;;;;;;13.06;18.39;99213.47;10446893;28;20255;-84
2022/04/23 19:10:06;;;;;;;4.63;2.63;;;;;;;12.79;18.98;99209.69;10459816;28;20227;-88
2022/04/23 19:15:13;;;;;;;2.88;2.47;;;;;;;13.24;18.42;99219.81;10446563;28;20612;-88
2022/04/23 19:20:15;;;;;;;3.10;2.60;;;;;;;12.96;18.93;99214.41;10419074;28;20232;-90
2022/04/23 19:30:50;;;;;;;3.07;2.77;;;;;;;12.66;19.13;99213.09;10454510;28;20203;-87
2022/04/23 19:35:52;;;;;;;3.17;2.67;;;;;;;12.47;19.63;99210.84;10439061;28;20258;-91
2022/04/23 19:40:56;;;;;;;3.88;3.10;;;;;;;13.30;19.38;99212.34;10424564;28;20819;-87
2022/04/23 19:45:58;;;;;;;4.47;2.83;;;;;;;12.99;19.04;99202.94;10477339;28;20231;-86
2022/04/23 19:51:00;;;;;;;4.40;2.27;;;;;;;11.90;20.86;99202.75;10481634;28;20223;-89
2022/04/23 19:56:04;;;;;;;2.78;2.53;;;;;;;12.92;19.21;99210.78;10455690;28;20309;-87
2022/04/23 20:01:08;;;;;;;2.30;2.10;;;;;;;13.59;19.32;99200.50;10462549;28;20232;-87
2022/04/23 20:06:12;;;;;;;3.63;2.47;;;;;;;13.57;18.87;99202.97;10486257;28;20243;-88
2022/04/23 20:11:15;;;;;;;2.63;2.40;;;;;;;13.68;19.44;99203.66;10459445;28;20559;-88
2022/04/23 20:16:19;;;;;;;4.82;2.63;;;;;;;13.06;19.74;99202.00;10457421;28;20223;-86
2022/04/23 20:21:22;;;;;;;2.90;2.55;;;;;;;13.89;18.65;99200.47;10488493;28;20227;-85
2022/04/23 20:26:28;;;;;;;8.13;2.77;;;;;;;11.88;20.59;99205.19;10485308;28;20667;-87
2022/04/23 20:31:43;;;;;;;3.57;2.83;;;;;;;12.90;19.88;99198.97;10471859;28;20665;-87
2022/04/23 20:42:12;;;;;;;4.80;3.27;;;;;;;12.24;20.42;99207.81;10475354;28;20231;-90
2022/04/23 20:47:15;;;;;;;4.07;3.20;;;;;;;13.18;19.57;99204.34;10470794;28;20644;-86
2022/04/23 20:57:39;;;;;;;3.43;2.70;;;;;;;12.87;19.96;99205.53;10439286;28;20667;-85
2022/04/23 21:02:41;;;;;;;2.80;2.53;;;;;;;12.24;20.96;99210.66;10424907;28;20201;-87
2022/04/23 21:07:43;;;;;;;6.20;3.07;;;;;;;12.09;20.92;99200.59;10429938;28;20200;-89
2022/04/23 21:12:47;;;;;;;4.90;3.00;;;;;;;12.26;20.89;99205.34;10424471;28;21127;-90
2022/04/23 21:17:52;;;;;;;3.57;2.87;;;;;;;12.20;21.69;99204.97;10432250;28;20636;-90
2022/04/23 21:22:54;;;;;;;3.72;2.55;;;;;;;12.55;20.88;99200.13;10453973;28;20275;-85
2022/04/23 21:27:57;;;;;;;3.30;2.58;;;;;;;12.27;21.60;99190.59;10432371;28;20200;-89
2022/04/23 21:32:59;;;;;;;4.60;3.20;;;;;;;12.55;20.80;99195.22;10443757;28;20651;-85
2022/04/23 21:38:02;;;;;;;3.33;2.72;;;;;;;11.94;22.03;99189.28;10447746;28;20203;-88
2022/04/23 21:48:25;;;;;;;3.93;2.80;;;;;;;12.09;22.59;99192.03;10436110;28;20196;-84
2022/04/23 21:53:27;;;;;;;4.10;2.80;;;;;;;10.89;23.81;99200.06;10440762;28;20247;-86
2022/04/23 21:58:29;;;;;;;3.40;3.07;;;;;;;11.93;22.80;99186.84;10423208;28;20609;-86
2022/04/23 22:03:32;;;;;;;4.20;3.40;;;;;;;11.15;24.06;99179.56;10442146;28;20204;-85
2022/04/23 22:08:34;;;;;;;4.13;3.17;;;;;;;11.91;22.69;99178.66;10436844;28;20592;-84
2022/04/23 22:13:36;;;;;;;3.28;2.97;;;;;;;11.15;24.08;99179.56;10436142;28;20536;-87
2022/04/23 22:18:39;;;;;;;4.10;3.00;;;;;;;11.95;22.67;99178.69;10437349;28;20287;-84
2022/04/23 22:23:42;;;;;;;4.97;2.78;;;;;;;11.76;23.35;99177.16;10434048;28;20241;-85
2022/04/23 22:28:44;;;;;;;3.20;2.93;;;;;;;10.77;24.76;99177.72;10437277;28;20200;-84
2022/04/23 22:33:46;;;;;;;3.00;2.80;;;;;;;11.59;23.60;99183.81;10439095;28;20212;-86
2022/04/23 22:38:48;;;;;;;5.43;2.90;;;;;;;10.73;24.81;99177.72;10421568;28;20204;-85
2022/04/23 22:43:51;;;;;;;4.27;3.03;;;;;;;11.51;23.42;99176.53;10420048;28;20534;-85
2022/04/23 22:48:53;;;;;;;3.80;3.40;;;;;;;11.59;23.73;99178.94;10422773;28;20269;-84
2022/04/23 22:53:56;;;;;;;5.80;3.50;;;;;;;10.89;24.48;99186.63;10432858;28;20197;-84
2022/04/23 22:58:58;;;;;;;3.60;3.30;;;;;;;11.21;23.65;99172.22;10443137;28;20199;-86
2022/04/23 23:04:00;;;;;;;3.30;3.00;;;;;;;11.11;24.05;99175.91;10445631;28;20366;-85
2022/04/23 23:09:03;;;;;;;3.50;3.20;;;;;;;11.68;23.47;99170.72;10439493;28;20191;-86
2022/04/23 23:14:05;;;;;;;3.20;2.90;;;;;;;11.01;24.64;99168.22;10418613;28;20191;-85
2022/04/23 23:19:12;;;;;;;3.00;2.70;;;;;;;10.32;25.04;99174.53;10436984;28;20509;-84
2022/04/23 23:24:14;;;;;;;3.60;3.30;;;;;;;10.21;25.26;99168.06;10438067;28;20277;-85
2022/04/23 23:29:16;;;;;;;3.30;3.00;;;;;;;10.28;25.68;99156.66;10417898;28;20208;-87
2022/04/23 23:34:18;;;;;;;3.67;3.37;;;;;;;10.19;25.47;99156.25;10432602;28;20254;-88
2022/04/23 23:39:21;;;;;;;3.50;3.00;;;;;;;10.07;26.27;99159.53;10453366;28;20280;-84
2022/04/23 23:44:23;;;;;;;7.27;3.37;;;;;;;9.89;26.32;99166.03;10456392;28;20204;-87
2022/04/23 23:49:25;;;;;;;3.83;3.50;;;;;;;10.43;25.50;99157.44;10443324;28;20204;-85
2022/04/23 23:54:28;;;;;;;4.00;3.70;;;;;;;10.26;25.60;99153.41;10453330;28;20586;-84
2022/04/23 23:59:30;;;;;;;4.00;3.60;;;;;;;10.53;25.11;99148.88;10441528;28;20596;-89
